Time;durP1;ratioP1;P1;durP2;ratioP2;P2;SDS_P1;SDS_P2;PMS_P1;PMS_P2;Temp;Humidity;BMP_temperature;BMP_pressure;BME280_temperature;BME280_humidity;BME280_pressure;Samples;Min_cycle;Max_cycle;Signal;HPM_P1;HPM_P2
2022/03/09 00:02:09;;;;;;;79.97;36.35;;;;;;;-3.69;76.39;95129.91;5019355;28;20116;-82
2022/03/09 00:04:35;;;;;;;78.38;34.92;;;;;;;-4.57;76.89;95011.16;5019924;28;20104;-82
2022/03/09 00:07:00;;;;;;;79.50;34.75;;;;;;;-3.39;76.91;95210.94;5020057;28;20445;-82
2022/03/09 00:09:26;;;;;;;72.72;31.83;;;;;;;-3.30;76.71;95186.47;5021114;28;20060;-82
2022/03/09 00:11:51;;;;;;;83.22;35.13;;;;;;;-3.53;77.26;95155.56;5019187;28;20377;-82
2022/03/09 00:14:17;;;;;;;77.85;34.22;;;;;;;-3.38;77.60;95191.00;5020687;28;20030;-82
2022/03/09 00:16:43;;;;;;;82.05;34.63;;;;;;;-3.29;77.86;95190.66;5020181;28;20108;-82
2022/03/09 00:19:09;;;;;;;81.45;36.05;;;;;;;-3.80;78.26;95127.81;5019114;28;20021;-83
2022/03/09 00:21:34;;;;;;;81.28;35.90;;;;;;;-4.86;77.99;95003.50;5020456;28;20112;-82
2022/03/09 00:23:59;;;;;;;81.07;36.90;;;;;;;-4.05;78.11;95098.91;5018413;28;20277;-82
2022/03/09 00:26:25;;;;;;;83.60;35.17;;;;;;;-5.16;78.07;94910.47;5019980;28;20095;-82
2022/03/09 00:28:50;;;;;;;78.85;34.55;;;;;;;-3.68;77.79;95141.88;5018945;28;20044;-83
2022/03/09 00:31:16;;;;;;;83.05;36.40;;;;;;;-3.32;77.74;95193.63;4972397;28;20041;-83
2022/03/09 00:33:46;;;;;;;78.55;33.45;;;;;;;-3.86;77.16;95086.28;449987;28;10023025;-83
2022/03/09 00:36:12;;;;;;;79.93;34.70;;;;;;;-3.74;77.03;95105.56;5018682;28;20350;-83
2022/03/09 00:38:37;;;;;;;83.80;36.88;;;;;;;-3.80;77.10;95086.34;5019876;28;20041;-82
2022/03/09 00:41:02;;;;;;;75.38;35.90;;;;;;;-3.32;76.67;95188.44;5019792;28;20038;-82
2022/03/09 00:43:28;;;;;;;82.95;36.28;;;;;;;-3.19;77.01;95183.34;5018203;28;20045;-83
2022/03/09 00:45:54;;;;;;;89.68;40.08;;;;;;;-3.23;76.86;95158.00;5018907;28;20041;-82
2022/03/09 00:48:20;;;;;;;79.90;35.42;;;;;;;-3.05;76.51;95180.88;5019791;28;20038;-82
2022/03/09 00:50:45;;;;;;;78.63;35.17;;;;;;;-3.58;76.43;95103.47;5019051;28;20516;-82
2022/03/09 00:53:11;;;;;;;82.32;36.40;;;;;;;-3.13;75.46;95177.41;5018806;28;20037;-82
2022/03/09 00:55:37;;;;;;;75.28;33.90;;;;;;;-3.65;75.13;95094.03;5018277;28;20038;-83
2022/03/09 00:58:02;;;;;;;73.65;34.35;;;;;;;-3.01;74.92;95169.91;5018330;28;20495;-83
2022/03/09 01:00:28;;;;;;;82.93;35.30;;;;;;;-3.27;74.08;95126.44;5017979;28;20034;-83
2022/03/09 01:02:53;;;;;;;76.50;34.40;;;;;;;-4.51;74.45;94917.25;5017021;28;20026;-82
2022/03/09 01:05:19;;;;;;;90.32;36.80;;;;;;;-3.59;74.72;95065.59;5034615;28;20064;-82
2022/03/09 01:07:44;;;;;;;74.68;33.38;;;;;;;-4.08;75.28;94987.09;5019556;28;20030;-82
2022/03/09 01:10:10;;;;;;;75.55;32.97;;;;;;;-2.92;74.18;95163.59;5017523;28;20483;-82
2022/03/09 01:12:37;;;;;;;74.65;32.83;;;;;;;-3.35;73.88;95086.88;5017749;28;20026;-83
2022/03/09 01:15:04;;;;;;;69.40;32.00;;;;;;;-3.81;73.00;95011.41;5018254;28;20065;-82
2022/03/09 01:17:29;;;;;;;65.50;29.17;;;;;;;-3.76;71.70;95027.19;5018518;28;20107;-82
2022/03/09 01:19:55;;;;;;;69.25;31.65;;;;;;;-3.03;73.04;95138.16;5017841;28;20029;-82
2022/03/09 01:22:20;;;;;;;65.45;30.98;;;;;;;-3.19;72.66;95118.50;5017613;28;20053;-82
2022/03/09 01:24:46;;;;;;;70.65;30.92;;;;;;;-2.89;72.70;95152.00;5018900;28;20477;-83
2022/03/09 01:27:12;;;;;;;66.07;30.92;;;;;;;-3.79;71.99;95048.28;5017589;28;20480;-83
2022/03/09 01:29:38;;;;;;;72.50;33.28;;;;;;;-3.36;72.99;95098.25;5018014;28;20036;-83
2022/03/09 01:32:04;;;;;;;61.72;30.27;;;;;;;-4.37;72.38;94941.47;5018974;28;20119;-82
2022/03/09 01:34:29;;;;;;;66.95;32.20;;;;;;;-3.61;72.12;95071.94;5018091;28;20046;-82
2022/03/09 01:36:55;;;;;;;71.80;31.00;;;;;;;-3.00;72.20;95158.53;5018438;28;20033;-83
2022/03/09 01:39:20;;;;;;;67.57;30.88;;;;;;;-2.95;72.02;95129.41;5017969;28;20527;-82
2022/03/09 01:41:46;;;;;;;65.35;28.42;;;;;;;-2.90;72.05;95156.38;5019298;28;20034;-83
2022/03/09 01:44:21;;;;;;;65.18;30.58;;;;;;;-2.89;71.79;95147.63;5018498;28;20029;-83
2022/03/09 01:46:49;;;;;;;65.28;30.33;;;;;;;-3.19;71.56;95107.31;5018374;28;20044;-83
2022/03/09 01:49:16;;;;;;;69.05;31.63;;;;;;;-2.79;71.14;95150.69;5017589;28;20034;-83
2022/03/09 01:51:44;;;;;;;72.57;31.05;;;;;;;-2.76;71.32;95155.50;5017636;28;20037;-83
2022/03/09 01:54:10;;;;;;;67.97;30.50;;;;;;;-2.84;71.55;95157.44;5018041;28;20026;-83
2022/03/09 01:56:36;;;;;;;70.22;30.42;;;;;;;-3.15;71.55;95122.34;5016331;28;20030;-82
2022/03/09 01:59:03;;;;;;;70.20;32.53;;;;;;;-2.89;72.43;95158.00;5016971;28;20069;-83
2022/03/09 02:01:29;;;;;;;73.82;29.85;;;;;;;-3.52;70.75;95074.22;5017217;28;20042;-83
2022/03/09 02:03:56;;;;;;;64.32;29.45;;;;;;;-3.93;70.58;95049.97;5019583;28;20086;-82
2022/03/09 02:06:22;;;;;;;74.20;32.45;;;;;;;-4.47;72.18;94943.56;5018702;28;20038;-82
2022/03/09 02:11:34;;;;;;;66.00;30.33;;;;;;;-4.02;71.39;95022.59;5018879;28;20049;-82
2022/03/09 02:14:00;;;;;;;68.05;30.85;;;;;;;-3.05;72.24;95152.34;5016365;28;20121;-82
2022/03/09 02:16:25;;;;;;;63.35;29.95;;;;;;;-2.97;72.19;95163.34;5018070;28;20033;-82
2022/03/09 02:18:51;;;;;;;64.40;29.52;;;;;;;-2.95;71.44;95150.19;5015669;28;20415;-82
2022/03/09 02:21:18;;;;;;;72.28;32.15;;;;;;;-3.53;72.09;95080.38;5017481;28;20160;-83
2022/03/09 02:23:45;;;;;;;72.07;30.85;;;;;;;-3.08;72.41;95118.97;5016815;28;20062;-82
2022/03/09 02:26:11;;;;;;;70.85;30.63;;;;;;;-3.50;71.93;95035.13;5017389;28;20115;-82
2022/03/09 02:28:38;;;;;;;68.25;30.33;;;;;;;-3.17;70.73;95102.75;5017346;28;20063;-82
2022/03/09 02:31:03;;;;;;;66.00;28.83;;;;;;;-3.93;69.99;95021.47;5016862;28;20038;-82
2022/03/09 02:33:31;;;;;;;62.20;29.45;;;;;;;-3.64;70.52;95062.75;1369151;28;10022127;-82
2022/03/09 02:35:57;;;;;;;72.53;30.13;;;;;;;-3.60;70.66;95068.38;3978436;28;10001097;-82
2022/03/09 02:38:22;;;;;;;67.82;30.75;;;;;;;-3.78;70.99;95040.31;5017192;28;20116;-82
2022/03/09 02:40:48;;;;;;;71.22;30.48;;;;;;;-4.61;71.59;94970.31;5015581;28;20049;-82
2022/03/09 02:43:13;;;;;;;63.85;29.13;;;;;;;-4.11;71.78;95027.09;5016947;28;20034;-82
2022/03/09 02:45:39;;;;;;;71.88;29.95;;;;;;;-4.09;72.74;95006.22;5017139;28;20056;-82
2022/03/09 02:48:04;;;;;;;71.78;30.08;;;;;;;-4.16;70.41;95024.28;5015749;28;20034;-82
2022/03/09 02:50:30;;;;;;;73.28;30.98;;;;;;;-3.96;71.29;95071.88;5015193;28;20045;-82
2022/03/09 02:52:55;;;;;;;67.10;30.40;;;;;;;-3.71;72.44;95113.72;5015055;28;20041;-82
2022/03/09 02:55:21;;;;;;;69.38;29.83;;;;;;;-3.30;72.42;95162.31;5016171;28;20050;-82
2022/03/09 02:57:46;;;;;;;69.97;29.77;;;;;;;-4.07;72.53;95024.97;5014757;28;20038;-82
2022/03/09 03:00:12;;;;;;;66.60;30.73;;;;;;;-3.66;72.06;95071.72;5014623;28;20036;-82
2022/03/09 03:02:39;;;;;;;68.10;31.25;;;;;;;-3.99;70.83;95033.41;5016184;28;20045;-82
2022/03/09 03:05:05;;;;;;;71.15;31.27;;;;;;;-3.46;71.63;95126.28;5015742;28;20098;-82
2022/03/09 03:07:31;;;;;;;66.40;31.73;;;;;;;-3.92;71.84;95038.63;5016934;28;20037;-83
2022/03/09 03:09:57;;;;;;;65.80;29.67;;;;;;;-3.83;72.40;95032.31;5015485;28;20121;-82
2022/03/09 03:12:22;;;;;;;66.05;30.50;;;;;;;-3.04;71.71;95165.09;5015168;28;20034;-82
2022/03/09 03:14:48;;;;;;;66.75;31.52;;;;;;;-3.28;71.14;95122.22;5016627;28;20105;-82
2022/03/09 03:17:13;;;;;;;70.53;31.17;;;;;;;-3.15;70.90;95153.47;5015842;28;20403;-82
2022/03/09 03:19:39;;;;;;;67.15;29.98;;;;;;;-3.53;71.66;95075.22;5021489;28;20492;-82
2022/03/09 03:22:04;;;;;;;67.90;29.65;;;;;;;-3.93;70.70;95001.56;5021117;28;20411;-82
2022/03/09 03:24:30;;;;;;;69.65;31.05;;;;;;;-4.47;71.98;94917.66;5021275;28;20064;-82
2022/03/09 03:26:55;;;;;;;67.20;31.55;;;;;;;-3.19;71.97;95134.06;5023178;28;20064;-82
2022/03/09 03:29:21;;;;;;;71.28;31.80;;;;;;;-2.97;71.73;95173.72;5021404;28;20040;-82
2022/03/09 03:31:46;;;;;;;69.68;31.10;;;;;;;-3.97;71.66;95018.44;5023138;28;20389;-82
2022/03/09 03:34:11;;;;;;;65.82;30.83;;;;;;;-4.45;71.28;94988.19;5022336;28;20038;-82
2022/03/09 03:36:37;;;;;;;65.50;30.83;;;;;;;-3.96;71.45;95064.09;5021072;28;20117;-82
2022/03/09 03:39:03;;;;;;;66.53;29.10;;;;;;;-3.66;71.90;95119.16;5021255;28;20045;-82
2022/03/09 03:41:29;;;;;;;67.07;32.17;;;;;;;-3.24;71.91;95170.16;5022260;28;20038;-82
2022/03/09 03:43:54;;;;;;;68.32;29.90;;;;;;;-3.55;72.06;95138.59;5021006;28;20040;-82
2022/03/09 03:46:20;;;;;;;65.95;30.30;;;;;;;-3.45;71.35;95170.19;5021975;28;20435;-82
2022/03/09 03:48:45;;;;;;;67.22;30.17;;;;;;;-4.19;71.89;95053.13;5021504;28;20076;-82
2022/03/09 03:51:10;;;;;;;67.25;29.20;;;;;;;-3.95;72.10;95094.19;5021353;28;20037;-82
2022/03/09 03:53:36;;;;;;;74.38;31.67;;;;;;;-4.07;72.21;95085.34;5021021;28;20038;-82
2022/03/09 03:56:01;;;;;;;71.32;33.25;;;;;;;-3.48;72.03;95172.34;5022360;28;20038;-82
2022/03/09 03:58:27;;;;;;;79.88;33.35;;;;;;;-3.79;72.36;95111.28;5021065;28;20038;-82
2022/03/09 04:00:52;;;;;;;73.22;30.65;;;;;;;-3.50;71.76;95183.69;5022239;28;20041;-82
2022/03/09 04:03:18;;;;;;;63.83;29.13;;;;;;;-3.53;71.63;95158.16;5020670;28;20495;-83
2022/03/09 04:05:43;;;;;;;67.97;30.10;;;;;;;-4.08;71.95;95095.88;5020875;28;20045;-82
2022/03/09 04:08:09;;;;;;;66.95;30.88;;;;;;;-4.57;71.35;94989.66;5022542;28;20041;-82
2022/03/09 04:10:34;;;;;;;65.32;30.30;;;;;;;-3.48;71.39;95157.59;5022856;28;20084;-83
2022/03/09 04:13:03;;;;;;;69.78;31.23;;;;;;;-4.43;70.53;95045.75;5022653;28;20481;-82
2022/03/09 04:15:32;;;;;;;66.30;30.95;;;;;;;-4.51;71.42;95033.72;5022620;28;20092;-82
2022/03/09 04:17:58;;;;;;;70.32;31.00;;;;;;;-3.68;71.92;95130.72;5021549;28;20077;-82
2022/03/09 04:20:24;;;;;;;68.70;31.02;;;;;;;-3.39;71.81;95159.06;5022428;28;20113;-82
2022/03/09 04:22:49;;;;;;;67.18;32.80;;;;;;;-3.85;72.30;95095.69;5023031;28;20072;-82
2022/03/09 04:25:15;;;;;;;69.78;30.08;;;;;;;-4.55;70.30;95016.16;5023034;28;20046;-82
2022/03/09 04:27:41;;;;;;;62.42;29.70;;;;;;;-4.53;70.64;95027.13;5020849;28;20091;-82
2022/03/09 04:30:07;;;;;;;74.90;29.73;;;;;;;-3.78;71.42;95132.81;5018951;28;20038;-82
2022/03/09 04:32:34;;;;;;;67.90;29.70;;;;;;;-3.64;72.53;95169.03;3546971;28;10020826;-82
2022/03/09 04:35:01;;;;;;;69.25;30.58;;;;;;;-4.91;71.90;94947.16;1729590;28;10001982;-82
2022/03/09 04:37:30;;;;;;;72.63;31.90;;;;;;;-4.03;72.15;95102.09;5017734;28;20276;-82
2022/03/09 04:39:58;;;;;;;66.38;30.17;;;;;;;-4.32;72.00;95050.44;5017813;28;20068;-82
2022/03/09 04:42:27;;;;;;;72.30;30.48;;;;;;;-3.65;71.47;95132.91;5018150;28;20089;-82
2022/03/09 04:44:53;;;;;;;67.97;29.25;;;;;;;-3.50;71.25;95160.38;5017288;28;20025;-82
2022/03/09 04:47:20;;;;;;;75.13;32.15;;;;;;;-4.19;71.61;95060.09;5033824;28;20044;-82
2022/03/09 04:49:45;;;;;;;73.57;30.63;;;;;;;-3.79;71.73;95115.66;5017709;28;20048;-82
2022/03/09 04:52:11;;;;;;;75.32;29.85;;;;;;;-4.15;70.79;95080.28;5019276;28;20041;-82
2022/03/09 04:54:36;;;;;;;65.32;30.33;;;;;;;-4.27;70.66;95079.16;5018850;28;20038;-82
2022/03/09 04:57:02;;;;;;;68.65;30.88;;;;;;;-4.03;72.11;95125.41;5017319;28;20120;-83
2022/03/09 04:59:28;;;;;;;79.43;31.98;;;;;;;-4.41;72.15;95064.47;5019228;28;20038;-82
2022/03/09 05:01:53;;;;;;;68.85;31.00;;;;;;;-3.75;72.62;95143.63;5018168;28;20068;-82
2022/03/09 05:04:18;;;;;;;87.72;34.40;;;;;;;-3.93;71.25;95125.91;5017073;28;20040;-83
2022/03/09 05:06:44;;;;;;;70.07;32.40;;;;;;;-4.09;71.22;95091.66;5016660;28;20498;-83
2022/03/09 05:09:10;;;;;;;80.07;33.75;;;;;;;-4.00;71.53;95109.50;5018040;28;20038;-83
2022/03/09 05:11:35;;;;;;;86.13;35.92;;;;;;;-3.53;73.03;95175.50;5019697;28;20060;-83
2022/03/09 05:14:01;;;;;;;65.88;32.60;;;;;;;-4.30;71.31;95064.78;5019970;28;20045;-83
2022/03/09 05:16:26;;;;;;;76.18;33.95;;;;;;;-3.81;72.46;95121.00;5020286;28;20034;-83
2022/03/09 05:18:51;;;;;;;75.32;33.05;;;;;;;-3.98;71.60;95079.03;5019252;28;20048;-83
2022/03/09 05:21:17;;;;;;;74.97;32.78;;;;;;;-4.08;71.17;95072.56;5018378;28;20093;-83
2022/03/09 05:23:42;;;;;;;75.68;32.58;;;;;;;-4.29;71.32;95006.06;5018694;28;20050;-82
2022/03/09 05:26:08;;;;;;;72.35;32.03;;;;;;;-3.66;70.80;95126.16;5017885;28;20033;-82
2022/03/09 05:28:34;;;;;;;81.07;33.28;;;;;;;-4.52;70.17;95003.66;5035455;28;20121;-82
2022/03/09 05:30:59;;;;;;;73.55;31.65;;;;;;;-3.96;70.47;95125.47;5018995;28;20030;-82
2022/03/09 05:33:25;;;;;;;73.47;33.10;;;;;;;-3.67;70.67;95176.38;5018729;28;20034;-83
2022/03/09 05:35:51;;;;;;;74.82;32.92;;;;;;;-4.22;71.91;95069.06;5019618;28;20049;-83
2022/03/09 05:38:34;;;;;;;74.05;33.35;;;;;;;-4.10;71.69;95087.47;5018961;28;20197;-83
2022/03/09 05:41:02;;;;;;;69.65;31.75;;;;;;;-4.01;72.23;95087.19;5018752;28;20026;-81
2022/03/09 05:43:40;;;;;;;76.45;31.58;;;;;;;-4.35;70.60;95045.63;5018855;28;20053;-83
2022/03/09 05:46:07;;;;;;;71.97;32.45;;;;;;;-3.76;70.79;95117.88;5019022;28;20046;-81
2022/03/09 05:48:32;;;;;;;73.88;32.95;;;;;;;-3.91;70.23;95115.38;5018217;28;20056;-82
2022/03/09 05:51:00;;;;;;;75.40;32.97;;;;;;;-3.96;71.00;95109.91;5019585;28;20220;-82
2022/03/09 05:53:26;;;;;;;72.50;33.85;;;;;;;-3.45;69.81;95174.56;5016599;28;20025;-81
2022/03/09 05:55:54;;;;;;;77.80;32.83;;;;;;;-4.18;69.69;95062.50;5015090;28;20587;-81
2022/03/09 05:58:20;;;;;;;69.90;31.27;;;;;;;-3.58;69.98;95157.09;5014966;28;20383;-81
2022/03/09 06:00:45;;;;;;;73.10;31.70;;;;;;;-3.71;70.74;95149.22;5017246;28;20077;-82
2022/03/09 06:03:11;;;;;;;73.45;32.15;;;;;;;-4.31;70.85;95072.75;5018032;28;20034;-82
2022/03/09 06:05:36;;;;;;;77.82;32.25;;;;;;;-4.86;70.86;94998.31;5016116;28;20030;-83
2022/03/09 06:08:02;;;;;;;75.60;32.50;;;;;;;-4.44;70.77;95057.88;5016793;28;20037;-82
2022/03/09 06:10:27;;;;;;;68.30;31.77;;;;;;;-3.72;71.07;95202.84;5018310;28;20184;-83
2022/03/09 06:12:53;;;;;;;73.05;32.45;;;;;;;-3.51;71.45;95212.44;5018549;28;20030;-82
2022/03/09 06:15:19;;;;;;;72.53;32.30;;;;;;;-3.35;71.66;95214.75;5015701;28;20041;-81
2022/03/09 06:17:46;;;;;;;76.32;34.78;;;;;;;-4.08;71.16;95111.41;5015067;28;20033;-81
2022/03/09 06:20:15;;;;;;;76.78;33.05;;;;;;;-4.08;70.79;95109.63;5016002;28;20044;-82
2022/03/09 06:22:41;;;;;;;78.40;34.03;;;;;;;-3.30;71.12;95222.78;5015155;28;20120;-82
2022/03/09 06:25:07;;;;;;;73.10;33.20;;;;;;;-3.57;70.44;95182.84;5014972;28;20358;-82
2022/03/09 06:27:45;;;;;;;83.05;35.78;;;;;;;-3.55;70.85;95169.69;5017563;28;20461;-82
2022/03/09 06:30:12;;;;;;;80.63;32.92;;;;;;;-3.62;70.37;95148.91;5013876;28;20057;-82
2022/03/09 06:32:38;;;;;;;79.53;34.10;;;;;;;-3.11;70.40;95229.09;5014144;28;20125;-82
2022/03/09 06:35:05;;;;;;;73.78;33.08;;;;;;;-3.47;70.42;95198.09;5015837;28;20145;-82
2022/03/09 06:37:31;;;;;;;69.78;32.05;;;;;;;-4.01;71.29;95107.09;5016037;28;20117;-83
2022/03/09 06:39:57;;;;;;;75.80;32.58;;;;;;;-4.78;70.54;95011.94;5014068;28;20072;-82
2022/03/09 06:42:23;;;;;;;64.85;31.55;;;;;;;-4.21;71.16;95143.16;5014224;28;20502;-83
2022/03/09 06:44:49;;;;;;;69.40;31.70;;;;;;;-4.56;71.36;95063.72;5014578;28;20101;-82
2022/03/09 06:47:15;;;;;;;72.13;31.67;;;;;;;-3.35;71.53;95235.47;5015928;28;20128;-83
2022/03/09 06:49:40;;;;;;;74.82;32.20;;;;;;;-3.83;71.98;95171.44;5014302;28;20092;-83
2022/03/09 06:52:06;;;;;;;65.70;30.27;;;;;;;-3.42;70.61;95237.22;5016065;28;20030;-83
2022/03/09 06:54:32;;;;;;;70.07;30.23;;;;;;;-4.14;70.34;95132.88;5013392;28;20034;-83
2022/03/09 06:56:57;;;;;;;64.95;28.90;;;;;;;-3.39;70.62;95247.22;5017226;28;20108;-82
2022/03/09 06:59:23;;;;;;;70.72;32.63;;;;;;;-3.50;71.14;95198.44;5013880;28;20052;-83
2022/03/09 07:01:49;;;;;;;67.68;30.35;;;;;;;-3.83;69.89;95142.94;5012010;28;20041;-82
2022/03/09 07:04:14;;;;;;;76.45;33.53;;;;;;;-3.00;70.59;95246.75;5012623;28;20034;-82
2022/03/09 07:06:40;;;;;;;72.80;31.55;;;;;;;-3.98;71.04;95079.03;5014811;28;20070;-83
2022/03/09 07:09:05;;;;;;;76.05;32.45;;;;;;;-3.68;70.63;95123.75;5015144;28;20033;-83
2022/03/09 07:11:31;;;;;;;60.83;27.02;;;;;;;-2.88;68.78;95240.06;5014124;28;20079;-83
2022/03/09 07:13:57;;;;;;;70.50;31.52;;;;;;;-2.80;69.24;95249.50;5014466;28;20451;-83
2022/03/09 07:16:23;;;;;;;63.15;28.80;;;;;;;-3.00;69.15;95235.59;5015455;28;20044;-83
2022/03/09 07:18:48;;;;;;;68.75;29.83;;;;;;;-3.18;69.18;95186.75;5013142;28;20560;-83
2022/03/09 07:21:14;;;;;;;62.08;29.60;;;;;;;-3.39;69.11;95150.47;5012963;28;20350;-83
2022/03/09 07:23:39;;;;;;;71.28;29.92;;;;;;;-3.59;69.52;95114.03;5014495;28;20054;-84
2022/03/09 07:26:06;;;;;;;64.80;30.88;;;;;;;-3.20;69.56;95194.72;5014361;28;20040;-84
2022/03/09 07:28:32;;;;;;;61.55;27.98;;;;;;;-3.29;69.00;95163.94;5013001;28;20057;-83
2022/03/09 07:30:59;;;;;;;59.38;28.92;;;;;;;-2.89;68.25;95237.66;5015534;28;20042;-83
2022/03/09 07:33:24;;;;;;;63.00;29.15;;;;;;;-3.57;69.78;95143.16;5014375;28;20038;-83
2022/03/09 07:35:50;;;;;;;71.10;30.88;;;;;;;-3.08;70.23;95192.41;5012113;28;20034;-83
2022/03/09 07:38:16;;;;;;;58.55;28.15;;;;;;;-2.93;67.59;95187.13;5015531;28;20122;-84
2022/03/09 07:40:42;;;;;;;63.90;26.98;;;;;;;-2.60;68.15;95239.25;5012608;28;20038;-83
2022/03/09 07:43:08;;;;;;;62.20;28.23;;;;;;;-3.64;68.00;95070.53;5014222;28;20038;-83
2022/03/09 07:45:34;;;;;;;60.30;28.70;;;;;;;-2.81;68.19;95183.81;5013323;28;20126;-83
2022/03/09 07:47:59;;;;;;;67.22;29.50;;;;;;;-2.88;68.10;95145.81;5015219;28;20125;-82
2022/03/09 07:50:24;;;;;;;70.20;30.45;;;;;;;-2.35;67.72;95227.41;5016918;28;20156;-82
2022/03/09 07:52:50;;;;;;;70.28;29.80;;;;;;;-5.21;68.47;94741.41;5013821;28;20034;-83
2022/03/09 07:55:16;;;;;;;57.13;27.63;;;;;;;-4.19;67.64;94905.53;5017703;28;20092;-83
2022/03/09 07:57:42;;;;;;;66.75;30.13;;;;;;;-2.39;68.27;95198.41;5014950;28;20045;-82
2022/03/09 08:00:08;;;;;;;63.42;31.50;;;;;;;-2.23;67.57;95215.47;5016843;28;20435;-82
2022/03/09 08:02:34;;;;;;;67.47;29.98;;;;;;;-3.40;68.22;95006.25;5016197;28;20530;-83
2022/03/09 08:04:59;;;;;;;76.90;30.25;;;;;;;-2.58;67.66;95123.00;5016880;28;20046;-84
2022/03/09 08:07:24;;;;;;;58.20;27.02;;;;;;;-2.42;66.69;95118.28;5019930;28;20088;-83
2022/03/09 08:09:50;;;;;;;64.18;28.67;;;;;;;-2.64;66.64;95064.06;5019140;28;20116;-82
2022/03/09 08:12:15;;;;;;;69.30;31.38;;;;;;;-1.90;67.09;95231.19;5020957;28;20064;-83
2022/03/09 08:14:41;;;;;;;65.53;31.40;;;;;;;-2.30;66.70;95143.72;5019345;28;20164;-83
2022/03/09 08:17:06;;;;;;;70.82;31.48;;;;;;;-2.50;66.59;95070.91;5021489;28;20045;-83
2022/03/09 08:19:32;;;;;;;77.47;32.55;;;;;;;-2.51;66.65;95049.34;5020410;28;20053;-82
2022/03/09 08:21:57;;;;;;;73.55;33.40;;;;;;;-1.27;67.54;95198.69;5024730;28;20084;-82
2022/03/09 08:24:23;;;;;;;68.78;31.25;;;;;;;-1.82;66.09;95153.03;5026843;28;20064;-82
2022/03/09 08:26:49;;;;;;;69.05;30.20;;;;;;;-1.34;65.91;95223.13;5027286;28;20046;-83
2022/03/09 08:29:15;;;;;;;58.75;28.48;;;;;;;-2.12;65.18;95055.59;5018245;28;20041;-83
2022/03/09 08:31:40;;;;;;;67.25;31.23;;;;;;;-1.40;66.97;95144.06;5020354;28;20114;-83
2022/03/09 08:34:06;;;;;;;56.10;26.77;;;;;;;-1.21;64.41;95168.47;5017667;28;20041;-83
2022/03/09 08:36:31;;;;;;;62.40;28.70;;;;;;;-1.25;64.49;95177.69;5034576;28;20034;-84
2022/03/09 08:38:57;;;;;;;63.78;29.50;;;;;;;-0.73;65.18;95207.28;5018266;28;20054;-83
2022/03/09 08:41:26;;;;;;;79.22;31.80;;;;;;;-0.63;65.57;95205.06;5017775;28;20061;-83
2022/03/09 08:43:52;;;;;;;83.15;34.15;;;;;;;-1.03;66.97;95145.25;5016356;28;20048;-83
2022/03/09 08:46:20;;;;;;;68.15;33.00;;;;;;;-1.17;66.80;95167.88;5018135;28;20066;-83
2022/03/09 08:48:48;;;;;;;70.28;31.33;;;;;;;-4.34;66.52;94656.31;5019781;28;20415;-83
2022/03/09 08:51:14;;;;;;;66.13;31.83;;;;;;;-2.64;66.96;94901.34;5018139;28;20100;-83
2022/03/09 08:53:40;;;;;;;65.00;32.10;;;;;;;-1.38;67.82;95146.47;5018871;28;20487;-83
2022/03/09 08:56:07;;;;;;;70.72;31.13;;;;;;;-1.86;66.75;95036.66;5019005;28;20034;-83
2022/03/09 08:58:34;;;;;;;67.22;30.17;;;;;;;-1.31;66.49;95122.06;5019766;28;20038;-82
2022/03/09 09:01:07;;;;;;;74.88;32.22;;;;;;;-0.86;67.35;95202.91;5018686;28;20038;-83
2022/03/09 09:03:34;;;;;;;70.80;32.55;;;;;;;-2.71;66.40;94900.53;5020220;28;20169;-82
2022/03/09 09:06:01;;;;;;;73.70;30.38;;;;;;;-0.67;66.79;95198.66;5018649;28;20035;-82
2022/03/09 09:08:26;;;;;;;63.22;30.17;;;;;;;-1.06;65.96;95117.00;5017229;28;20411;-82
2022/03/09 09:10:52;;;;;;;69.07;33.40;;;;;;;-0.62;65.41;95163.22;5017231;28;20149;-82
2022/03/09 09:13:17;;;;;;;74.30;32.63;;;;;;;-1.44;66.08;95046.59;5017401;28;20099;-82
2022/03/09 09:15:43;;;;;;;81.50;32.80;;;;;;;-0.82;65.64;95111.16;5020599;28;20097;-83
2022/03/09 09:18:08;;;;;;;75.45;32.13;;;;;;;-0.85;63.78;95119.41;5033092;28;20050;-82
2022/03/09 09:20:35;;;;;;;64.85;30.73;;;;;;;-0.32;63.56;95191.38;5016131;28;20112;-83
2022/03/09 09:23:01;;;;;;;56.40;29.02;;;;;;;-0.79;62.79;95156.81;5016553;28;20033;-83
2022/03/09 09:25:27;;;;;;;70.15;32.28;;;;;;;-0.60;64.72;95148.16;5020682;28;20073;-82
2022/03/09 09:27:56;;;;;;;64.43;30.90;;;;;;;-0.23;65.28;95190.91;5019828;28;20459;-83
2022/03/09 09:30:30;;;;;;;66.70;30.65;;;;;;;-0.22;65.01;95189.13;5018255;28;20077;-82
2022/03/09 09:32:56;;;;;;;66.75;29.75;;;;;;;-0.95;64.04;95063.53;5015990;28;20108;-83
2022/03/09 09:35:23;;;;;;;62.17;29.92;;;;;;;-0.98;62.54;95030.09;5016401;28;20033;-83
2022/03/09 09:37:49;;;;;;;68.03;30.15;;;;;;;-0.56;64.29;95125.13;5017239;28;20517;-82
2022/03/09 09:40:14;;;;;;;64.63;30.40;;;;;;;-0.94;63.78;95078.97;5019541;28;20132;-82
2022/03/09 09:42:42;;;;;;;52.63;26.13;;;;;;;-0.18;62.21;95190.31;5017296;28;20026;-82
2022/03/09 09:45:08;;;;;;;59.20;28.50;;;;;;;-0.41;62.42;95154.31;5017160;28;20069;-82
2022/03/09 09:47:34;;;;;;;56.65;28.27;;;;;;;-0.17;62.66;95192.72;5018577;28;20049;-83
2022/03/09 09:50:02;;;;;;;59.47;26.83;;;;;;;-0.44;62.62;95137.28;5015789;28;20401;-82
2022/03/09 09:52:32;;;;;;;54.05;26.23;;;;;;;-0.88;61.52;95062.50;5017214;28;20030;-82
2022/03/09 09:54:59;;;;;;;53.08;24.08;;;;;;;-0.45;60.25;95114.84;5018771;28;20093;-82
2022/03/09 09:57:28;;;;;;;48.75;22.25;;;;;;;-0.26;60.34;95141.84;5016791;28;20120;-82
2022/03/09 09:59:55;;;;;;;43.50;22.30;;;;;;;-0.74;59.64;95033.81;5017685;28;20104;-83
2022/03/09 10:02:21;;;;;;;39.78;18.80;;;;;;;-1.15;56.51;94945.69;5016459;28;20029;-83
2022/03/09 10:04:47;;;;;;;26.60;14.88;;;;;;;-0.43;55.13;95091.19;5016847;28;20042;-83
2022/03/09 10:07:13;;;;;;;36.50;18.40;;;;;;;-0.16;55.56;95123.16;5015865;28;20144;-83
2022/03/09 10:09:43;;;;;;;50.88;21.52;;;;;;;-0.77;57.45;95014.22;5011846;28;20033;-83
2022/03/09 10:12:10;;;;;;;44.55;22.85;;;;;;;0.05;57.19;95090.75;5013068;28;20038;-82
2022/03/09 10:14:48;;;;;;;41.80;22.75;;;;;;;1.20;57.58;95176.38;5016717;28;20049;-83
2022/03/09 10:17:16;;;;;;;46.83;18.98;;;;;;;1.14;55.11;95130.22;5014515;28;20125;-82
2022/03/09 10:20:01;;;;;;;34.25;16.95;;;;;;;1.52;52.61;95172.66;5015047;28;20135;-82
2022/03/09 10:22:27;;;;;;;45.28;20.48;;;;;;;1.84;55.58;95162.03;5015301;28;20095;-82
2022/03/09 10:24:55;;;;;;;36.65;19.17;;;;;;;1.97;53.59;95114.81;5017717;28;20136;-82
2022/03/09 10:27:41;;;;;;;47.30;20.77;;;;;;;2.59;55.18;95176.34;5014028;28;20038;-82
2022/03/09 10:30:30;;;;;;;33.33;16.05;;;;;;;2.29;51.26;95165.88;5014906;28;20140;-81
2022/03/09 10:33:01;;;;;;;36.20;19.15;;;;;;;2.30;54.97;95167.47;5029077;28;20171;-82
2022/03/09 10:35:29;;;;;;;32.97;17.05;;;;;;;2.45;50.69;95166.25;5011876;28;20539;-82
2022/03/09 10:37:57;;;;;;;50.42;22.25;;;;;;;2.50;51.96;95169.84;5030487;28;20044;-82
2022/03/09 10:40:23;;;;;;;33.92;18.98;;;;;;;2.76;57.09;95113.63;5016428;28;20042;-82
2022/03/09 10:42:49;;;;;;;24.90;14.93;;;;;;;3.13;54.74;95108.22;5015869;28;20038;-82
2022/03/09 10:45:17;;;;;;;27.45;15.13;;;;;;;3.09;53.13;95121.75;5014992;28;20037;-82
2022/03/09 10:47:47;;;;;;;29.92;14.00;;;;;;;3.34;53.43;95120.72;5015111;28;20073;-82
2022/03/09 10:50:25;;;;;;;30.57;15.33;;;;;;;2.67;52.59;95039.06;5013276;28;20119;-82
2022/03/09 10:52:59;;;;;;;32.38;17.08;;;;;;;2.95;57.74;95047.03;5030992;28;20108;-82
2022/03/09 10:55:43;;;;;;;37.83;18.02;;;;;;;2.91;54.99;95003.97;5017717;28;20068;-83
2022/03/09 10:58:17;;;;;;;24.05;13.57;;;;;;;3.62;51.99;95154.09;5017455;28;20103;-82
2022/03/09 11:00:50;;;;;;;34.85;14.95;;;;;;;3.83;54.78;95142.97;5016214;28;20050;-82
2022/03/09 11:03:27;;;;;;;30.48;13.98;;;;;;;3.83;53.44;95108.88;5014785;28;20092;-82
2022/03/09 11:06:00;;;;;;;26.88;14.35;;;;;;;4.00;51.00;95091.38;5017285;28;20037;-82
2022/03/09 11:08:31;;;;;;;28.48;13.85;;;;;;;4.16;53.47;95082.75;5019909;28;20038;-83
2022/03/09 11:11:00;;;;;;;34.13;17.67;;;;;;;4.17;52.79;95099.28;5016259;28;20040;-82
2022/03/09 11:13:28;;;;;;;28.17;13.98;;;;;;;3.77;46.87;95109.81;5015362;28;20037;-82
2022/03/09 11:15:54;;;;;;;33.75;16.05;;;;;;;4.06;54.96;95108.78;5017406;28;20058;-82
2022/03/09 11:18:24;;;;;;;25.27;13.02;;;;;;;3.77;55.95;95031.09;5016882;28;20030;-83